Aviation Digital Data Service (ADDS)

Output produced by METARs form (0118 UTC 25 May 2015)
found at http://www.aviationweather.gov/adds/metars/
 
KDOV 250058Z AUTO 22005KT 10SM BKN210 22/16 A3025 RMK AO2 SLP247 T02150162 VISNO RWY19 CHINO RWY19 $
TAF KDOV 2500/2606 20009KT 9999 FEW150 QNH3015INS TX29/2522Z TN14/2512Z